Time;durP1;ratioP1;P1;durP2;ratioP2;P2;SDS_P1;SDS_P2;PMS_P1;PMS_P2;Temp;Humidity;BMP_temperature;BMP_pressure;BME280_temperature;BME280_humidity;BME280_pressure;Samples;Min_cycle;Max_cycle;Signal;HPM_P1;HPM_P2
2022/04/25 00:01:16;;;;;;;6.88;1.45;;;;;;;17.25;55.57;96286.25;5112612;28;20018;-33
2022/04/25 00:03:43;;;;;;;9.43;1.58;;;;;;;17.27;55.25;96286.53;5114504;28;20027;-32
2022/04/25 00:06:08;;;;;;;6.35;1.48;;;;;;;17.29;55.30;96273.13;5114663;28;20034;-32
2022/04/25 00:08:33;;;;;;;5.10;1.20;;;;;;;17.28;55.20;96268.09;5114896;28;20348;-33
2022/04/25 00:10:59;;;;;;;6.13;1.20;;;;;;;17.31;55.05;96262.41;5114313;28;20080;-33
2022/04/25 00:13:25;;;;;;;11.00;1.75;;;;;;;17.28;55.42;96268.88;5114557;28;20114;-32
2022/04/25 00:15:52;;;;;;;10.50;1.40;;;;;;;17.36;55.14;96272.72;5096003;28;20028;-32
2022/04/25 00:18:19;;;;;;;6.78;1.35;;;;;;;17.31;55.45;96267.16;5114365;28;20020;-32
2022/04/25 00:20:45;;;;;;;5.63;1.65;;;;;;;17.36;55.07;96272.72;5114585;28;20092;-33
2022/04/25 00:23:10;;;;;;;9.45;1.35;;;;;;;17.35;54.67;96275.94;5114573;28;20388;-33
2022/04/25 00:25:36;;;;;;;8.88;2.13;;;;;;;17.31;54.90;96276.13;5114407;28;20023;-33
2022/04/25 00:28:03;;;;;;;9.18;1.70;;;;;;;17.35;55.10;96275.94;5114072;28;20027;-33
2022/04/25 00:30:30;;;;;;;6.93;1.58;;;;;;;17.34;55.08;96258.72;5114070;28;20436;-33
2022/04/25 00:32:56;;;;;;;5.90;1.55;;;;;;;17.24;55.40;96271.03;5114095;28;20035;-33
2022/04/25 00:35:22;;;;;;;8.43;1.92;;;;;;;17.22;55.28;96263.28;5114033;28;20023;-33
2022/04/25 00:37:49;;;;;;;7.70;1.75;;;;;;;17.22;55.50;96262.53;5114059;28;20024;-33
2022/04/25 00:40:15;;;;;;;7.18;1.67;;;;;;;17.21;55.47;96261.00;5113935;28;20449;-32
2022/04/25 00:42:41;;;;;;;8.63;1.77;;;;;;;17.24;55.31;96257.31;5113912;28;20020;-33
2022/04/25 00:45:10;;;;;;;6.93;1.30;;;;;;;17.28;55.19;96260.63;5113356;28;20040;-33
2022/04/25 00:47:35;;;;;;;8.15;1.80;;;;;;;17.20;55.46;96256.75;5113231;28;20040;-33
2022/04/25 00:50:01;;;;;;;4.82;1.25;;;;;;;17.22;55.28;96255.06;5113247;28;20108;-33
2022/04/25 00:52:26;;;;;;;5.88;1.25;;;;;;;17.24;55.32;96254.59;5113356;28;20363;-32
2022/04/25 00:54:53;;;;;;;6.60;1.65;;;;;;;17.22;55.45;96257.03;5112718;28;20016;-32
2022/04/25 00:57:20;;;;;;;4.95;1.58;;;;;;;17.31;55.02;96254.19;5113184;28;20019;-33
2022/04/25 00:59:46;;;;;;;9.48;1.60;;;;;;;17.38;54.68;96251.06;5113118;28;20383;-32
2022/04/25 01:02:11;;;;;;;6.75;1.40;;;;;;;17.34;54.94;96247.75;5112941;28;20028;-33
2022/04/25 01:04:37;;;;;;;6.35;1.58;;;;;;;17.32;54.91;96247.47;5112871;28;20516;-33
2022/04/25 01:07:03;;;;;;;7.07;1.30;;;;;;;17.25;55.06;96242.41;5112912;28;20027;-33
2022/04/25 01:09:28;;;;;;;6.72;1.67;;;;;;;17.24;55.23;96241.63;5113037;28;20106;-33
2022/04/25 01:11:58;;;;;;;7.95;1.60;;;;;;;17.23;55.25;96237.38;5112675;28;20145;-33
2022/04/25 01:14:24;;;;;;;9.55;2.20;;;;;;;17.28;55.08;96246.19;5113148;28;20024;-33
2022/04/25 01:16:49;;;;;;;5.00;1.20;;;;;;;17.23;55.40;96247.59;5094906;28;20030;-33
2022/04/25 01:19:15;;;;;;;7.75;1.95;;;;;;;17.27;55.22;96244.66;5112986;28;20035;-33
2022/04/25 01:21:59;;;;;;;9.52;1.77;;;;;;;17.28;55.22;96248.91;5112727;28;20471;-33
2022/04/25 01:27:16;;;;;;;7.70;1.55;;;;;;;17.16;55.78;96253.47;5113136;28;20027;-32
2022/04/25 01:29:53;;;;;;;6.57;1.42;;;;;;;17.20;55.57;96249.28;5112727;28;20027;-32
2022/04/25 01:32:22;;;;;;;4.70;1.67;;;;;;;17.21;55.29;96236.34;5112521;28;20080;-32
2022/04/25 01:34:48;;;;;;;4.90;1.70;;;;;;;17.21;55.41;96239.84;5112704;28;20107;-33
2022/04/25 01:37:16;;;;;;;6.32;1.60;;;;;;;17.21;55.52;96239.09;5112987;28;20137;-32
2022/04/25 01:39:44;;;;;;;5.50;1.80;;;;;;;17.20;55.37;96237.56;5112852;28;20051;-34
2022/04/25 01:42:11;;;;;;;9.35;2.00;;;;;;;17.21;55.42;96236.34;5112560;28;20012;-33
2022/04/25 01:44:39;;;;;;;6.85;1.63;;;;;;;17.16;55.26;96226.06;5077983;28;270023;-33
2022/04/25 01:47:06;;;;;;;4.95;1.50;;;;;;;17.17;55.46;96224.84;5102987;28;20506;-33
2022/04/25 01:49:33;;;;;;;6.25;1.38;;;;;;;17.19;55.45;96225.84;5113577;28;20110;-33
2022/04/25 01:52:04;;;;;;;6.32;1.40;;;;;;;17.21;55.56;96222.63;5113115;28;20024;-33
2022/04/25 01:54:32;;;;;;;9.40;1.92;;;;;;;17.19;55.37;96236.06;5114157;28;20387;-33
2022/04/25 01:56:58;;;;;;;6.32;2.30;;;;;;;17.21;55.28;96242.59;5117108;28;20023;-34
2022/04/25 01:59:23;;;;;;;6.55;1.73;;;;;;;17.24;55.15;96235.41;5117117;28;20076;-33
2022/04/25 02:01:50;;;;;;;6.47;1.60;;;;;;;17.22;55.35;96235.13;5117026;28;20026;-33
2022/04/25 02:04:15;;;;;;;7.95;1.60;;;;;;;17.20;55.29;96230.09;5116948;28;20446;-33
2022/04/25 02:06:41;;;;;;;6.75;1.70;;;;;;;17.19;55.39;96242.28;5117052;28;20057;-33
2022/04/25 02:09:08;;;;;;;4.72;1.50;;;;;;;17.22;55.15;96238.63;5116987;28;20383;-32
2022/04/25 02:11:34;;;;;;;6.60;1.83;;;;;;;17.18;55.33;96218.84;5116938;28;20019;-34
2022/04/25 02:14:02;;;;;;;5.93;1.75;;;;;;;17.18;55.42;96229.81;5116678;28;20033;-33
2022/04/25 02:16:28;;;;;;;4.90;1.40;;;;;;;17.18;55.41;96234.56;5116663;28;20068;-33
2022/04/25 02:18:54;;;;;;;2.53;1.17;;;;;;;17.21;55.25;96228.13;5116658;28;20459;-33
2022/04/25 02:21:20;;;;;;;5.05;1.45;;;;;;;17.16;55.40;96228.81;5116700;28;20464;-33
2022/04/25 02:23:48;;;;;;;3.15;1.23;;;;;;;17.15;55.41;96224.56;5116804;28;20034;-33
2022/04/25 02:26:13;;;;;;;5.60;1.50;;;;;;;17.14;55.40;96221.06;5116266;28;20066;-33
2022/04/25 02:28:39;;;;;;;6.75;1.60;;;;;;;17.19;55.45;96227.84;5116782;28;20066;-32
2022/04/25 02:31:06;;;;;;;7.70;1.80;;;;;;;17.20;55.08;96232.84;5116197;28;20023;-33
2022/04/25 02:33:33;;;;;;;5.10;1.40;;;;;;;17.19;55.18;96231.34;5098136;28;20027;-33
2022/04/25 02:35:59;;;;;;;5.15;1.45;;;;;;;17.25;55.15;96228.69;5116417;28;20023;-33
2022/04/25 02:38:25;;;;;;;2.67;1.02;;;;;;;17.24;54.99;96227.19;5116388;28;20032;-34
2022/04/25 02:41:08;;;;;;;5.72;1.75;;;;;;;17.21;55.28;96228.13;5116224;28;20031;-32
2022/04/25 02:43:44;;;;;;;6.10;1.55;;;;;;;17.14;55.48;96223.03;5116703;28;20026;-33
2022/04/25 02:46:13;;;;;;;4.32;1.50;;;;;;;17.11;55.36;96226.72;5115980;28;20101;-33
2022/04/25 02:48:40;;;;;;;9.32;2.05;;;;;;;17.13;55.26;96221.53;5097788;28;20089;-33
2022/04/25 02:51:07;;;;;;;5.93;2.03;;;;;;;17.16;55.15;96221.34;5115796;28;20085;-33
2022/04/25 02:53:34;;;;;;;7.10;1.80;;;;;;;17.13;55.23;96222.28;5115906;28;20035;-33
2022/04/25 02:56:02;;;;;;;4.90;1.42;;;;;;;17.16;54.98;96220.59;5116118;28;20413;-33
2022/04/25 02:58:30;;;;;;;5.43;1.70;;;;;;;17.13;54.81;96216.81;5116052;28;20080;-33
2022/04/25 03:00:58;;;;;;;7.82;1.70;;;;;;;17.14;54.81;96229.28;5097485;28;20070;-33
2022/04/25 03:03:24;;;;;;;3.97;1.50;;;;;;;17.19;54.67;96228.59;5116243;28;20031;-32
2022/04/25 03:05:51;;;;;;;3.90;1.60;;;;;;;17.18;54.75;96218.84;5114727;28;20088;-32
2022/04/25 03:08:20;;;;;;;3.53;1.25;;;;;;;17.16;54.78;96226.81;5115657;28;20084;-32
2022/04/25 03:10:47;;;;;;;6.90;1.65;;;;;;;17.18;54.49;96232.56;5115604;28;20027;-32
2022/04/25 03:13:16;;;;;;;6.47;1.33;;;;;;;17.22;54.58;96229.63;5115946;28;20107;-33
2022/04/25 03:15:44;;;;;;;4.75;1.65;;;;;;;17.16;54.53;96228.81;5115553;28;20051;-32
2022/04/25 03:18:12;;;;;;;5.55;1.38;;;;;;;17.14;54.54;96223.03;5115608;28;20084;-33
2022/04/25 03:20:38;;;;;;;2.88;1.30;;;;;;;17.12;54.44;96223.50;5115582;28;20021;-33
2022/04/25 03:23:07;;;;;;;3.85;1.65;;;;;;;17.14;54.63;96236.75;5115159;28;20034;-32
2022/04/25 03:25:33;;;;;;;4.32;1.60;;;;;;;17.19;54.42;96225.84;5097090;28;20085;-32
2022/04/25 03:27:59;;;;;;;3.33;1.33;;;;;;;17.15;54.16;96225.31;5115291;28;20098;-33
2022/04/25 03:30:25;;;;;;;4.35;1.50;;;;;;;17.20;54.31;96226.59;5115342;28;20020;-33
2022/04/25 03:32:52;;;;;;;3.08;1.10;;;;;;;17.21;54.00;96239.09;5115045;28;20391;-32
2022/04/25 03:35:19;;;;;;;2.67;1.30;;;;;;;17.16;54.09;96228.81;5115130;28;20022;-32
2022/04/25 03:37:46;;;;;;;5.13;1.42;;;;;;;17.12;54.19;96226.25;5115031;28;20028;-33
2022/04/25 03:40:13;;;;;;;3.90;1.55;;;;;;;17.14;54.14;96229.28;5115073;28;20386;-33
2022/04/25 03:42:40;;;;;;;4.18;1.50;;;;;;;17.12;54.27;96231.72;5115112;28;20020;-33
2022/04/25 03:45:09;;;;;;;5.07;2.13;;;;;;;17.17;54.13;96233.06;5096318;28;20047;-33
2022/04/25 03:47:39;;;;;;;5.72;1.50;;;;;;;17.15;54.00;96230.03;5114887;28;20387;-32
2022/04/25 03:50:08;;;;;;;3.03;1.23;;;;;;;17.15;54.14;96232.78;5114758;28;20497;-33
2022/04/25 03:52:35;;;;;;;3.15;1.20;;;;;;;17.12;53.96;96230.97;5114957;28;20463;-32
2022/04/25 03:57:52;;;;;;;3.30;1.30;;;;;;;17.12;53.82;96242.69;5114730;28;20042;-34
2022/04/25 04:00:18;;;;;;;4.35;1.30;;;;;;;17.16;53.83;96242.50;5114535;28;20031;-33
2022/04/25 04:02:44;;;;;;;5.05;1.42;;;;;;;17.12;53.94;96239.94;5114755;28;20108;-32
2022/04/25 04:05:10;;;;;;;5.45;1.33;;;;;;;17.14;53.98;96244.97;5114552;28;20502;-35
2022/04/25 04:07:35;;;;;;;2.83;1.23;;;;;;;17.16;53.79;96248.00;5114610;28;20460;-32
2022/04/25 04:10:01;;;;;;;3.80;1.27;;;;;;;17.18;53.64;96248.28;5096065;28;20091;-33
2022/04/25 04:12:31;;;;;;;4.68;1.45;;;;;;;17.18;53.66;96249.00;5114289;28;20031;-33
2022/04/25 04:14:58;;;;;;;3.15;1.17;;;;;;;17.14;53.58;96248.47;5114350;28;20020;-32
2022/04/25 04:17:25;;;;;;;3.92;1.20;;;;;;;17.08;53.84;96250.34;5114025;28;20440;-32
2022/04/25 04:19:53;;;;;;;4.40;1.48;;;;;;;17.07;53.81;96259.03;5114391;28;20028;-33
2022/04/25 04:22:21;;;;;;;4.53;1.15;;;;;;;17.06;53.73;96254.81;5114323;28;20023;-33
2022/04/25 04:24:47;;;;;;;4.18;1.35;;;;;;;17.09;53.59;96251.09;5114250;28;20486;-32
2022/04/25 04:27:14;;;;;;;3.28;1.30;;;;;;;17.11;53.51;96259.59;5114320;28;20031;-32
2022/04/25 04:29:41;;;;;;;3.53;1.20;;;;;;;17.08;53.63;96266.03;5114266;28;20381;-32
2022/04/25 04:32:07;;;;;;;4.35;2.00;;;;;;;17.08;53.68;96260.53;5114295;28;20417;-33
2022/04/25 04:34:35;;;;;;;4.47;1.15;;;;;;;17.10;53.73;96260.81;5095873;28;20027;-32
2022/04/25 04:37:01;;;;;;;3.85;1.50;;;;;;;17.11;53.33;96270.56;5114133;28;20075;-32
2022/04/25 04:39:27;;;;;;;4.53;1.85;;;;;;;17.15;53.26;96266.41;5113948;28;20444;-33
2022/04/25 04:41:52;;;;;;;4.40;1.33;;;;;;;17.11;53.49;96267.81;5114147;28;20072;-33
2022/04/25 04:44:18;;;;;;;3.17;1.00;;;;;;;17.13;53.37;96271.59;5114004;28;20048;-32
2022/04/25 04:46:43;;;;;;;2.45;1.20;;;;;;;17.09;53.56;96278.50;5114013;28;20062;-32
2022/04/25 04:49:09;;;;;;;2.58;1.00;;;;;;;17.14;53.28;96273.13;5113948;28;20019;-33
2022/04/25 04:51:35;;;;;;;1.67;0.90;;;;;;;17.15;53.37;96277.38;5113847;28;20024;-34
2022/04/25 04:54:02;;;;;;;4.07;1.17;;;;;;;17.13;53.30;96290.03;5113719;28;20076;-32
2022/04/25 04:56:29;;;;;;;2.80;1.08;;;;;;;17.12;53.41;96296.75;5095635;28;20019;-33
2022/04/25 04:58:54;;;;;;;2.50;1.00;;;;;;;17.14;53.28;96300.53;5113841;28;20099;-33
2022/04/25 05:01:21;;;;;;;3.67;0.93;;;;;;;17.14;53.42;96294.28;5095712;28;20480;-33
2022/04/25 05:03:47;;;;;;;1.83;0.85;;;;;;;17.07;53.61;96286.44;5114019;28;20456;-32
2022/04/25 05:06:13;;;;;;;1.50;0.77;;;;;;;17.05;53.64;96297.13;5113757;28;20032;-32
2022/04/25 05:08:39;;;;;;;1.25;0.65;;;;;;;17.11;53.48;96306.19;5095481;28;20034;-33
2022/04/25 05:11:07;;;;;;;2.22;0.80;;;;;;;17.08;53.49;96296.91;5111057;28;20027;-33
2022/04/25 05:13:33;;;;;;;1.58;0.80;;;;;;;17.08;53.46;96307.13;5111845;28;20023;-33
2022/04/25 05:15:58;;;;;;;1.38;0.90;;;;;;;17.06;53.61;96301.38;5111766;28;20026;-33
2022/04/25 05:18:25;;;;;;;2.20;0.95;;;;;;;17.07;53.49;96300.13;5109654;28;20106;-33
2022/04/25 05:20:52;;;;;;;1.52;0.80;;;;;;;17.05;53.65;96302.59;5111648;28;20475;-32
2022/04/25 05:23:17;;;;;;;1.25;0.70;;;;;;;17.03;53.69;96299.56;5111323;28;20545;-33
2022/04/25 05:25:43;;;;;;;1.42;1.00;;;;;;;17.02;53.63;96301.56;5093230;28;20142;-32
2022/04/25 05:28:08;;;;;;;2.45;0.82;;;;;;;17.11;53.43;96306.19;5111405;28;20092;-33
2022/04/25 05:30:35;;;;;;;2.17;0.90;;;;;;;17.09;53.25;96308.63;5114187;28;20038;-32
2022/04/25 05:33:03;;;;;;;2.17;1.10;;;;;;;17.10;53.40;96302.69;5115597;28;20036;-34
2022/04/25 05:35:31;;;;;;;2.50;0.95;;;;;;;17.12;53.39;96308.44;5115360;28;20463;-33
2022/04/25 05:38:05;;;;;;;1.83;1.00;;;;;;;17.11;53.52;96312.41;5115481;28;20047;-33
2022/04/25 05:40:31;;;;;;;2.83;1.10;;;;;;;17.13;53.27;96320.16;5115527;28;20392;-32
2022/04/25 05:42:58;;;;;;;2.30;1.10;;;;;;;17.10;53.41;96316.38;5115327;28;20035;-32
2022/04/25 05:45:25;;;;;;;2.42;1.08;;;;;;;17.07;53.58;96308.34;5114921;28;20047;-33
2022/04/25 05:47:55;;;;;;;1.73;0.88;;;;;;;17.08;53.53;96313.34;5114939;28;20024;-33
2022/04/25 05:53:06;;;;;;;2.33;0.98;;;;;;;17.12;53.37;96302.97;5115118;28;20486;-33
2022/04/25 05:55:32;;;;;;;4.15;1.00;;;;;;;17.04;53.72;96312.06;5115040;28;20028;-33
2022/04/25 05:58:01;;;;;;;1.70;0.82;;;;;;;17.05;53.87;96319.03;5114942;28;20060;-32
2022/04/25 06:00:27;;;;;;;2.25;1.10;;;;;;;17.11;53.76;96319.88;5114715;28;20031;-32
2022/04/25 06:02:54;;;;;;;2.95;1.20;;;;;;;17.10;53.68;96318.38;5114833;28;20016;-33
2022/04/25 06:05:20;;;;;;;1.80;1.02;;;;;;;17.10;53.75;96321.09;5114996;28;20486;-33
2022/04/25 06:07:46;;;;;;;2.90;1.00;;;;;;;17.13;53.70;96315.44;5114913;28;20023;-33
2022/04/25 06:10:15;;;;;;;2.30;0.88;;;;;;;17.15;53.67;96317.72;5114470;28;20115;-33
2022/04/25 06:12:43;;;;;;;4.05;1.00;;;;;;;17.13;53.70;96328.41;5114615;28;20074;-33
2022/04/25 06:15:10;;;;;;;3.60;1.10;;;;;;;17.14;53.79;96321.69;5114545;28;20403;-33
2022/04/25 06:17:37;;;;;;;3.63;1.10;;;;;;;17.11;53.83;96320.63;5114244;28;20032;-33
2022/04/25 06:20:04;;;;;;;2.47;1.10;;;;;;;17.17;53.62;96329.72;5113904;28;20383;-33
2022/04/25 06:22:29;;;;;;;4.43;1.08;;;;;;;17.09;53.77;96325.06;5114382;28;20062;-33
2022/04/25 06:24:55;;;;;;;2.33;1.00;;;;;;;17.09;53.84;96330.56;5114432;28;20063;-33
2022/04/25 06:27:21;;;;;;;1.90;0.93;;;;;;;17.13;53.63;96328.41;5114367;28;20059;-33
2022/04/25 06:29:46;;;;;;;3.15;0.80;;;;;;;17.07;53.89;96333.00;5094860;28;20051;-33
2022/04/25 06:32:13;;;;;;;2.55;1.00;;;;;;;17.07;53.98;96331.03;5095859;28;20031;-33
2022/04/25 06:34:39;;;;;;;3.40;0.90;;;;;;;17.05;54.51;96324.53;5095832;28;20028;-32
2022/04/25 06:37:06;;;;;;;2.28;0.85;;;;;;;17.09;53.96;96330.56;5114349;28;20028;-34
2022/04/25 06:39:33;;;;;;;2.60;0.93;;;;;;;17.11;53.97;96333.59;5114204;28;20036;-34
2022/04/25 06:41:59;;;;;;;2.65;0.90;;;;;;;17.08;54.06;96340.75;5113929;28;20031;-32
2022/04/25 06:44:24;;;;;;;4.03;1.15;;;;;;;17.14;53.94;96340.88;5113554;28;20070;-33
2022/04/25 06:46:50;;;;;;;1.83;0.85;;;;;;;17.15;53.99;96350.59;5113905;28;20035;-33
2022/04/25 06:49:24;;;;;;;2.35;1.02;;;;;;;17.00;54.61;96349.81;5113003;28;20108;-33
2022/04/25 06:51:56;;;;;;;2.08;1.02;;;;;;;17.09;54.23;96352.47;5095354;28;20388;-33
2022/04/25 06:54:26;;;;;;;3.03;1.40;;;;;;;17.13;54.20;96353.81;5114031;28;20034;-33
2022/04/25 06:56:55;;;;;;;1.80;1.00;;;;;;;17.11;54.37;96352.75;5113912;28;20403;-33
2022/04/25 06:59:22;;;;;;;1.52;0.80;;;;;;;17.18;53.98;96346.94;5095211;28;20176;-32
2022/04/25 07:01:49;;;;;;;2.85;1.08;;;;;;;17.11;54.35;96347.28;5095423;28;20030;-33
2022/04/25 07:04:16;;;;;;;2.13;1.00;;;;;;;17.05;54.41;96344.47;5113818;28;20569;-32
2022/04/25 07:06:43;;;;;;;2.75;1.20;;;;;;;17.09;54.27;96338.78;5113662;28;20042;-33
2022/04/25 07:09:12;;;;;;;1.73;1.20;;;;;;;17.05;54.63;96338.22;5113602;28;20052;-33
2022/04/25 07:11:43;;;;;;;2.95;0.93;;;;;;;17.05;54.64;96360.13;5113265;28;20108;-33
2022/04/25 07:14:14;;;;;;;3.10;0.90;;;;;;;17.09;54.31;96352.47;5113798;28;20031;-32
2022/04/25 07:16:41;;;;;;;4.82;1.52;;;;;;;17.04;54.51;96353.16;5113717;28;20128;-33
2022/04/25 07:19:07;;;;;;;4.72;1.30;;;;;;;17.04;54.78;96358.63;5112309;28;20073;-33
2022/04/25 07:29:48;;;;;;;3.38;1.50;;;;;;;16.98;54.92;96379.66;5113303;28;20058;-34
2022/04/25 07:32:18;;;;;;;4.57;1.30;;;;;;;17.02;54.63;96372.78;5113176;28;20039;-33
2022/04/25 07:34:45;;;;;;;4.70;1.30;;;;;;;17.03;54.50;96371.56;5112718;28;20048;-33
2022/04/25 07:37:11;;;;;;;3.88;1.20;;;;;;;17.04;54.63;96373.09;5113323;28;20037;-33
2022/04/25 07:39:37;;;;;;;3.83;1.30;;;;;;;17.13;54.52;96374.97;5113237;28;20027;-33
2022/04/25 07:42:04;;;;;;;4.03;1.42;;;;;;;16.93;55.08;96374.84;5113076;28;20015;-33
2022/04/25 07:44:30;;;;;;;5.03;1.80;;;;;;;16.85;55.59;96377.94;5112882;28;20081;-33
2022/04/25 07:46:55;;;;;;;6.55;1.40;;;;;;;16.89;55.44;96380.50;5112675;28;20027;-33
2022/04/25 07:49:21;;;;;;;2.08;1.27;;;;;;;17.03;55.03;96390.00;5112784;28;20576;-32
2022/04/25 07:51:48;;;;;;;4.55;1.55;;;;;;;17.01;55.03;96392.44;5112151;28;20067;-33
2022/04/25 07:54:14;;;;;;;5.05;1.23;;;;;;;16.98;55.39;96396.88;5112638;28;20098;-32
2022/04/25 07:56:42;;;;;;;4.50;1.55;;;;;;;17.04;55.28;96391.50;5112443;28;20030;-33
2022/04/25 07:59:08;;;;;;;3.78;1.65;;;;;;;17.10;54.82;96400.56;5112324;28;20034;-32
2022/04/25 08:01:34;;;;;;;3.63;1.60;;;;;;;17.09;55.12;96401.78;5112731;28;20383;-32
2022/04/25 08:04:01;;;;;;;4.78;1.55;;;;;;;17.04;55.16;96403.22;5112669;28;20024;-33
2022/04/25 08:06:27;;;;;;;3.92;1.45;;;;;;;16.98;55.34;96401.59;5112765;28;20031;-33
2022/04/25 08:08:54;;;;;;;2.63;1.58;;;;;;;17.12;55.08;96407.09;5112581;28;20501;-34
2022/04/25 08:11:21;;;;;;;3.83;1.70;;;;;;;17.07;55.03;96409.72;5093839;28;20369;-33
2022/04/25 08:19:16;;;;;;;5.43;2.03;;;;;;;16.95;55.54;96411.50;5110692;28;20026;-33
2022/04/25 08:21:44;;;;;;;4.43;1.85;;;;;;;16.88;55.83;96414.59;5112288;28;20027;-33
2022/04/25 08:24:11;;;;;;;5.90;2.22;;;;;;;16.94;57.35;96417.47;5111941;28;20028;-32
2022/04/25 08:26:36;;;;;;;6.32;2.00;;;;;;;16.91;56.64;96415.66;5112309;28;20046;-33
2022/04/25 08:29:03;;;;;;;4.78;2.00;;;;;;;17.05;55.74;96404.75;5112481;28;20451;-33
2022/04/25 08:31:29;;;;;;;6.15;1.80;;;;;;;17.09;55.23;96413.50;5112052;28;20024;-33
2022/04/25 08:33:56;;;;;;;6.95;2.10;;;;;;;16.85;56.62;96421.00;5112208;28;20027;-33
2022/04/25 08:36:22;;;;;;;5.18;1.88;;;;;;;16.92;56.29;96419.91;5111920;28;20030;-34
2022/04/25 08:38:48;;;;;;;5.30;2.03;;;;;;;17.06;55.89;96419.19;5110703;28;20027;-33
2022/04/25 08:41:16;;;;;;;4.50;2.33;;;;;;;16.99;57.42;96427.75;5106770;28;20024;-33
2022/04/25 08:43:43;;;;;;;9.15;2.15;;;;;;;16.96;56.03;96426.72;5114022;28;20020;-33
2022/04/25 08:46:10;;;;;;;2.53;1.63;;;;;;;17.09;56.04;96429.19;5114056;28;20048;-33
2022/04/25 08:48:39;;;;;;;3.75;1.55;;;;;;;17.03;55.60;96425.59;5114032;28;20044;-33
2022/04/25 08:51:05;;;;;;;4.80;1.80;;;;;;;17.04;55.76;96427.13;5113699;28;20031;-33
2022/04/25 08:53:33;;;;;;;4.03;1.73;;;;;;;17.12;55.55;96417.31;5114301;28;20131;-33
2022/04/25 08:56:03;;;;;;;5.00;1.60;;;;;;;16.72;57.87;96423.97;5113960;28;20409;-33
2022/04/25 08:58:31;;;;;;;5.50;1.80;;;;;;;16.75;57.20;96423.06;5113758;28;20081;-33
2022/04/25 09:01:01;;;;;;;3.95;1.80;;;;;;;17.02;55.96;96422.09;5113794;28;20023;-33
2022/04/25 09:03:27;;;;;;;5.05;2.42;;;;;;;17.04;56.13;96427.88;5096451;28;20054;-33
2022/04/25 09:05:52;;;;;;;3.55;1.75;;;;;;;17.00;56.16;96432.78;5118051;28;20051;-33
2022/04/25 09:08:19;;;;;;;5.97;1.90;;;;;;;17.01;56.75;96430.78;5099923;28;20111;-33
2022/04/25 09:12:09;;;;;;;3.58;1.40;;;;;;;16.91;56.53;96435.59;5118351;28;20019;-33
2022/04/25 09:13:37;;;;;;;7.38;2.22;;;;;;;16.96;56.05;96436.91;5117845;28;20038;-33
2022/04/25 09:16:03;;;;;;;3.90;1.63;;;;;;;16.82;56.30;96433.66;5118104;28;20019;-33
2022/04/25 09:18:29;;;;;;;6.10;1.70;;;;;;;16.94;55.89;96434.63;5117903;28;20032;-33
2022/04/25 09:20:58;;;;;;;3.35;1.52;;;;;;;16.91;55.84;96434.84;5117685;28;20019;-34
2022/04/25 09:23:23;;;;;;;3.13;1.25;;;;;;;17.10;54.86;96431.47;5117629;28;20544;-33
2022/04/25 09:26:11;;;;;;;3.22;1.27;;;;;;;17.10;54.81;96427.97;5117964;28;20106;-33
2022/04/25 09:28:54;;;;;;;4.60;1.58;;;;;;;16.83;55.88;96432.44;5117728;28;20055;-32
2022/04/25 09:31:25;;;;;;;3.33;1.38;;;;;;;16.94;55.82;96440.09;5117463;28;20020;-32
2022/04/25 09:33:52;;;;;;;3.63;1.60;;;;;;;17.09;54.79;96438.16;5117638;28;20055;-33
2022/04/25 09:36:18;;;;;;;4.88;1.40;;;;;;;17.14;54.82;96443.00;5117730;28;20027;-33
2022/04/25 09:38:45;;;;;;;4.85;1.80;;;;;;;17.06;55.08;96441.13;5117539;28;20028;-33
2022/04/25 09:41:15;;;;;;;3.20;1.27;;;;;;;17.19;54.12;96441.59;5117240;28;20020;-33
2022/04/25 09:43:44;;;;;;;3.85;1.42;;;;;;;17.07;55.31;96450.81;5117666;28;20030;-33
2022/04/25 09:46:11;;;;;;;3.47;1.65;;;;;;;16.86;55.71;96450.69;5117056;28;20050;-32
2022/04/25 09:48:40;;;;;;;4.43;1.20;;;;;;;16.80;55.42;96452.56;5117229;28;20106;-33
2022/04/25 09:51:09;;;;;;;6.18;1.30;;;;;;;16.65;55.49;96451.72;5117205;28;20031;-33
2022/04/25 09:53:46;;;;;;;2.67;1.40;;;;;;;17.01;54.72;96464.44;5098817;28;20028;-33
2022/04/25 09:56:22;;;;;;;3.05;1.25;;;;;;;17.10;54.27;96463.59;5117094;28;20517;-33
2022/04/25 09:59:05;;;;;;;2.65;1.40;;;;;;;17.08;54.05;96461.31;5117446;28;20105;-33
2022/04/25 10:01:34;;;;;;;4.60;1.45;;;;;;;17.20;54.01;96462.28;5117027;28;20491;-32
2022/04/25 10:04:01;;;;;;;3.00;1.33;;;;;;;17.20;53.79;96463.03;5117243;28;20024;-33
2022/04/25 10:06:32;;;;;;;4.00;1.40;;;;;;;17.24;53.78;96469.13;5116668;28;20050;-32
2022/04/25 10:09:00;;;;;;;2.25;1.48;;;;;;;17.26;53.61;96476.13;5113983;28;20024;-33
2022/04/25 10:11:34;;;;;;;3.47;1.38;;;;;;;17.13;54.00;96468.91;5116425;28;20016;-33
2022/04/25 10:14:00;;;;;;;2.33;1.23;;;;;;;17.19;53.81;96477.97;5113525;28;20077;-33
2022/04/25 10:16:28;;;;;;;5.22;1.30;;;;;;;17.25;53.78;96478.09;5115806;28;20119;-32
2022/04/25 10:18:54;;;;;;;2.45;1.33;;;;;;;17.19;53.82;96477.22;5116526;28;20535;-32
2022/04/25 10:21:21;;;;;;;1.92;1.15;;;;;;;17.23;53.60;96484.03;5098900;28;20034;-32
2022/04/25 10:23:47;;;;;;;2.60;1.10;;;;;;;17.25;53.22;96486.31;5116849;28;20351;-33
2022/04/25 10:26:12;;;;;;;2.75;1.08;;;;;;;17.26;53.50;96482.34;5116738;28;20123;-33
2022/04/25 10:28:52;;;;;;;2.50;1.17;;;;;;;17.23;53.18;96483.28;5116699;28;20023;-33
2022/04/25 10:31:25;;;;;;;2.20;1.30;;;;;;;17.19;53.43;96471.75;5116345;28;20077;-33
2022/04/25 10:33:58;;;;;;;1.45;0.90;;;;;;;17.21;53.25;96478.28;5116496;28;20055;-33
2022/04/25 10:36:39;;;;;;;2.65;1.30;;;;;;;17.23;53.28;96481.31;5116301;28;20023;-33
2022/04/25 10:39:13;;;;;;;1.83;1.20;;;;;;;17.24;53.37;96479.31;5116256;28;20498;-32
2022/04/25 10:44:37;;;;;;;3.03;1.33;;;;;;;17.25;53.26;96486.31;5098146;28;20051;-35
2022/04/25 10:47:05;;;;;;;2.55;1.15;;;;;;;17.13;53.84;96479.88;5097928;28;20024;-33
2022/04/25 10:49:40;;;;;;;2.17;1.52;;;;;;;17.24;53.46;96482.06;5115570;28;20027;-33
2022/04/25 10:52:31;;;;;;;3.30;1.30;;;;;;;17.27;53.48;96489.34;5115438;28;20031;-33
2022/04/25 10:55:13;;;;;;;3.72;1.48;;;;;;;17.23;53.46;96488.75;5097817;28;20409;-33
2022/04/25 10:58:04;;;;;;;5.28;1.38;;;;;;;17.25;53.55;96486.31;5116265;28;20019;-33
2022/04/25 11:00:39;;;;;;;2.40;1.20;;;;;;;17.26;53.58;96498.81;5116108;28;20068;-33
2022/04/25 11:03:09;;;;;;;2.60;1.13;;;;;;;17.23;53.56;96492.25;5097535;28;20031;-34
2022/04/25 11:05:35;;;;;;;3.97;1.70;;;;;;;17.23;53.61;96481.31;5097481;28;20490;-33
2022/04/25 11:08:16;;;;;;;3.97;1.30;;;;;;;17.27;53.38;96483.88;5115547;28;20032;-33
2022/04/25 11:11:02;;;;;;;4.28;1.52;;;;;;;17.27;53.40;96481.13;5115703;28;20483;-34
2022/04/25 11:13:56;;;;;;;2.75;1.45;;;;;;;17.27;53.47;96492.09;5115764;28;20121;-33
2022/04/25 11:16:25;;;;;;;1.98;1.30;;;;;;;17.18;53.66;96492.91;5078359;28;20028;-33
2022/04/25 11:19:09;;;;;;;3.15;1.52;;;;;;;17.26;53.47;96495.31;5115473;28;20441;-33
2022/04/25 11:21:35;;;;;;;2.95;1.17;;;;;;;17.32;53.24;96485.94;5115701;28;20019;-33
2022/04/25 11:24:02;;;;;;;3.72;1.45;;;;;;;17.31;53.28;96478.22;5115412;28;20024;-32
2022/04/25 11:26:29;;;;;;;2.17;1.10;;;;;;;17.31;53.01;96494.66;5114889;28;20028;-33
2022/04/25 11:28:54;;;;;;;2.53;1.30;;;;;;;17.37;52.87;96490.78;5114764;28;20487;-33
2022/04/25 11:31:23;;;;;;;2.78;1.08;;;;;;;17.34;52.92;96488.97;5096971;28;20034;-33
2022/04/25 11:33:53;;;;;;;1.50;1.00;;;;;;;17.30;52.91;96482.19;5115491;28;20024;-33
2022/04/25 11:36:20;;;;;;;2.17;1.02;;;;;;;17.32;52.96;96496.91;5115118;28;20432;-32
2022/04/25 11:41:39;;;;;;;3.22;1.25;;;;;;;17.24;52.86;96493.03;5115375;28;20502;-33
2022/04/25 11:44:05;;;;;;;2.92;1.20;;;;;;;17.34;52.66;96488.22;5114824;28;20027;-33
2022/04/25 11:46:32;;;;;;;1.85;1.02;;;;;;;17.36;52.47;96488.50;5115150;28;20145;-33
2022/04/25 11:48:58;;;;;;;2.65;1.02;;;;;;;17.35;52.14;96487.75;5115022;28;20051;-32
2022/04/25 11:51:29;;;;;;;3.22;1.00;;;;;;;17.24;52.72;96495.75;5114716;28;20073;-33
2022/04/25 11:54:00;;;;;;;4.40;1.60;;;;;;;17.28;52.32;96501.84;5114967;28;20394;-33
2022/04/25 11:56:29;;;;;;;1.50;1.00;;;;;;;17.34;52.36;96501.94;5114820;28;20483;-33
2022/04/25 11:58:57;;;;;;;2.03;1.15;;;;;;;17.37;52.06;96496.28;5115008;28;20072;-35
2022/04/25 12:01:43;;;;;;;1.60;1.17;;;;;;;17.33;52.12;96490.22;5114704;28;20016;-33
2022/04/25 12:04:34;;;;;;;1.92;1.10;;;;;;;17.32;51.85;96494.16;5114726;28;20468;-32
2022/04/25 12:07:09;;;;;;;2.10;1.00;;;;;;;17.36;51.99;96485.78;5114903;28;20072;-33